Home > Products > Valid Products > TAF

000
FTUS45 KPIH 302300
TAFSUN
TAF
KSUN 302320Z 3100/3124 15008KT P6SM FEW060 SCT200
     FM310400 31008KT P6SM FEW090 SCT200
     FM312100 15008KT P6SM BKN090 BKN130 OVC150
      AMD LTD TO CLD VIS AND WIND 3105/3113=



000
FTUS45 KPIH 302300
TAFBYI
TAF
KBYI 302320Z 3100/3124 06008KT P6SM SCT200
     FM311700 18010KT P6SM SCT140 SCT180
     FM312100 25015KT P6SM FEW090 BKN140 BKN160=



000
FTUS45 KPIH 302300
TAFIDA
TAF
KIDA 302320Z 3100/3124 01008KT P6SM SCT200
     FM311900 21015KT P6SM FEW080 SCT160=



000
FTUS45 KPIH 302300
TAFPIH
TAF
KPIH 302320Z 3100/3124 05008KT P6SM SCT200
     FM311800 19015KT P6SM FEW070 SCT160 SCT180=



000
FTUS45 KPIH 301700
TAFIDA
TAF
KIDA 301720Z 3018/3118 36008KT P6SM SCT250=



000
FTUS45 KPIH 301700
TAFSUN
TAF
KSUN 301720Z 3018/3118 14008KT P6SM SCT120
     FM310300 32008KT P6SM SCT250=



000
FTUS45 KPIH 301700
TAFPIH
TAF
KPIH 301720Z 3018/3118 05008KT P6SM SCT250=



000
FTUS45 KPIH 301700
TAFBYI
TAF
KBYI 301720Z 3018/3118 07008KT P6SM SCT250=



000
FTUS45 KPIH 301100
TAFSUN
TAF
KSUN 301120Z 3012/3112 32008KT P6SM SCT090 BKN200
     FM301800 14006KT P6SM BKN200
     FM310300 32008KT P6SM BKN200
      AMD LTD TO CLD VIS AND WIND TIL 301300=



000
FTUS45 KPIH 301100
TAFPIH
TAF
KPIH 301120Z 3012/3112 VRB05KT P6SM FEW090 SCT250=



000
FTUS45 KPIH 301100
TAFIDA
TAF
KIDA 301120Z 3012/3112 VRB05KT P6SM FEW100 SCT250=



000
FTUS45 KPIH 301100
TAFBYI
TAF
KBYI 301120Z 3012/3112 VRB05KT P6SM FEW090 SCT250=



000
FTUS45 KPIH 300500
TAFSUN
TAF
KSUN 300520Z 3006/3106 32006KT P6SM SCT090 SCT130 BKN200
     FM301600 14006KT P6SM FEW120 SCT200
      AMD LTD TO CLD VIS AND WIND TIL 301300=



000
FTUS45 KPIH 300500
TAFPIH
TAF
KPIH 300520Z 3006/3106 21006KT P6SM SCT090 SCT160
     FM301200 04006KT P6SM SCT090 SCT250=



000
FTUS45 KPIH 300500
TAFIDA
TAF
KIDA 300520Z 3006/3106 VRB04KT P6SM FEW040 SCT120 BKN200
     FM301000 01006KT P6SM FEW035 BKN090 BKN200
     FM301900 VRB04KT P6SM FEW080 SCT200=



000
FTUS45 KPIH 300500
TAFBYI
TAF
KBYI 300520Z 3006/3106 VRB05KT P6SM SCT090 SCT180
     FM301300 07006KT P6SM SCT200=



000
FTUS45 KPIH 300000 AAA
TAFIDA
TAF AMD
KIDA 300005Z 3000/3024 24010KT P6SM SCT050 BKN130 BKN180
     FM300100 18006KT P6SM FEW040 BKN100
     FM301600 VRB04KT P6SM FEW080 SCT200=



000
FTUS45 KPIH 292300
TAFSUN
TAF
KSUN 292332Z 3000/3024 VRB05KT P6SM FEW035 BKN100
     FM301300 30006KT P6SM SCT200
     FM301800 14006KT P6SM SCT035 SCT200
      AMD LTD TO CLD VIS AND WIND 3005/3013=



000
FTUS45 KPIH 292300
TAFIDA
TAF
KIDA 292332Z 3000/3024 24010G20KT P6SM SCT050 BKN130 BKN180
     FM300100 18006KT P6SM FEW040 BKN100
     FM301600 VRB04KT P6SM FEW080 SCT200=



000
FTUS45 KPIH 292300
TAFPIH
TAF
KPIH 292332Z 3000/3024 24015KT P6SM FEW040 BKN130 BKN160
     FM300100 21006KT P6SM BKN100 BKN160
     FM301200 04006KT P6SM SCT090 SCT160 BKN250=



000
FTUS45 KPIH 292300
TAFBYI
TAF
KBYI 292332Z 3000/3024 28010KT P6SM FEW035 SCT120 SCT160
     FM300100 VRB05KT P6SM SCT100 SCT160
     FM301200 07006KT P6SM SCT200=



000
FTUS45 KPIH 292200 AAA
TAFIDA
TAF AMD
KIDA 292217Z 2922/3018 24010G20KT P6SM SCT050 BKN080
     FM300300 35006KT P6SM SCT120=



000
FTUS45 KPIH 291700
TAFIDA
TAF
KIDA 291725Z 2918/3018 24011KT P6SM SCT050 BKN080
     FM300300 35006KT P6SM SCT120=



000
FTUS45 KPIH 291700
TAFBYI
TAF
KBYI 291725Z 2918/3018 24010KT P6SM SCT080 SCT120
     FM292000 27012KT P6SM SCT080 BKN120
     FM300300 VRB05KT P6SM FEW150=



000
FTUS45 KPIH 291700
TAFSUN
TAF
KSUN 291725Z 2918/3018 14008KT P6SM SCT050 BKN080
     FM300300 31009KT P6SM FEW080 SCT150=



000
FTUS45 KPIH 291700
TAFPIH
TAF
KPIH 291725Z 2918/3018 22010G18KT P6SM SCT060 BKN100
     FM292100 26012G20KT P6SM SCT080 BKN150
     FM300300 VRB05KT P6SM SCT150=



000
FTUS45 KPIH 291100
TAFIDA
TAF
KIDA 291120Z 2912/3012 VRB05KT P6SM FEW050 BKN120
     FM291800 22011KT P6SM SCT050 BKN100
     FM300300 VRB05KT P6SM SCT120=



000
FTUS45 KPIH 291100
TAFPIH
TAF
KPIH 291120Z 2912/3012 VRB05KT P6SM SCT070 BKN120
     FM291800 25010KT P6SM SCT060 SCT100
     FM300300 VRB05KT P6SM SCT150=



000
FTUS45 KPIH 291100
TAFSUN
TAF
KSUN 291120Z 2912/3012 32007KT P6SM VCSH SCT050 BKN080
     FM291800 13007KT P6SM SCT050 BKN080
     FM300300 31009KT P6SM FEW080 SCT150
      AMD LTD TO CLD VIS AND WIND TIL 291300=



000
FTUS45 KPIH 291100
TAFBYI
TAF
KBYI 291120Z 2912/3012 VRB05KT P6SM FEW070 SCT150
     FM291800 27008KT P6SM SCT150 BKN250
     FM300300 VRB05KT P6SM BKN250=



000
FTUS45 KPIH 290700 AAA
TAFSUN
TAF AMD
KSUN 290747Z 2908/3006 31009KT P6SM VCSH SCT040 BKN100
     FM291400 VRB05KT P6SM BKN100
     FM291800 13007KT P6SM SCT150 BKN250
     FM300300 31009KT P6SM BKN200
      AMD LTD TO CLD VIS AND WIND TIL 291300=



000
FTUS45 KPIH 290500
TAFPIH
TAF
KPIH 290520Z 2906/3006 VRB05KT P6SM BKN250
     FM291800 25010KT P6SM SCT150 BKN250
     FM300300 VRB05KT P6SM BKN250=



000
FTUS45 KPIH 290500
TAFBYI
TAF
KBYI 290520Z 2906/3006 VRB05KT P6SM BKN250
     FM291800 27008KT P6SM SCT150 BKN250
     FM300300 VRB05KT P6SM BKN250=



000
FTUS45 KPIH 290500
TAFSUN
TAF
KSUN 290520Z 2906/3006 31009KT P6SM BKN200
     FM291800 13007KT P6SM SCT150 BKN250
     FM300300 31009KT P6SM BKN200
      AMD LTD TO CLD VIS AND WIND TIL 291300=



000
FTUS45 KPIH 290500
TAFIDA
TAF
KIDA 290520Z 2906/3006 VRB05KT P6SM BKN250
     FM291800 22011KT P6SM SCT150 BKN250
     FM300300 VRB06KT P6SM BKN250=



000
FTUS45 KPIH 282300 RRA
TAFSUN
TAF
KSUN 282341Z 2900/2924 12008KT P6SM SKC
     FM290300 31009KT P6SM BKN150
     FM291800 13007KT P6SM SCT150 BKN250
      AMD LTD TO CLD VIS AND WIND 2905/2913=



000
FTUS45 KPIH 282300 RRA
TAFBYI
TAF
KBYI 282341Z 2900/2924 VRB05KT P6SM BKN250
     FM291800 27008KT P6SM SCT150 BKN250=



000
FTUS45 KPIH 282300 RRA
TAFPIH
TAF
KPIH 282341Z 2900/2924 VRB05KT P6SM BKN250
     FM291800 25010KT P6SM SCT150 BKN250=



000
FTUS45 KPIH 282300 RRA
TAFIDA
TAF
KIDA 282341Z 2900/2924 22008KT P6SM SKC
     FM290400 VRB05KT P6SM SCT150 BKN250
     FM291800 22011KT P6SM SCT150 BKN250=



000
FTUS45 KPIH 282000 AAA
TAFIDA
TAF AMD
KIDA 282008Z 2820/2918 21012KT P6SM SCT200
     FM290400 01005KT P6SM SCT110 BKN150
     FM291700 VRB06KT P6SM SCT150 BKN250=



000
FTUS45 KPIH 282000 AAA
TAFPIH
TAF AMD
KPIH 282007Z 2820/2918 26009KT P6SM SCT200
     FM290600 VRB05KT P6SM SCT120 BKN150
     FM291700 21008KT P6SM SCT150 BKN250=



000
FTUS45 KPIH 281700
TAFSUN
TAF
KSUN 281720Z 2818/2918 13006KT P6SM FEW150 SCT250
     FM290300 31009KT P6SM SCT080 BKN150
     FM291700 13006KT P6SM SCT150 BKN250=



000
FTUS45 KPIH 281700
TAFIDA
TAF
KIDA 281720Z 2818/2918 VRB05KT P6SM FEW120 SCT200
     FM290400 01005KT P6SM SCT110 BKN150
     FM291700 VRB06KT P6SM SCT150 BKN250=



000
FTUS45 KPIH 281700
TAFBYI
TAF
KBYI 281720Z 2818/2918 VRB05KT P6SM SCT250
     FM290300 VRB05KT P6SM SCT120 BKN200
     FM291700 22005KT P6SM SCT150 BKN250=



000
FTUS45 KPIH 281700
TAFPIH
TAF
KPIH 281720Z 2818/2918 VRB05KT P6SM SCT200
     FM290600 VRB05KT P6SM SCT120 BKN150
     FM291700 21006KT P6SM SCT150 BKN250=



000
FTUS45 KPIH 281100
TAFIDA
TAF
KIDA 281120Z 2812/2912 VRB05KT P6SM SCT200
     FM290600 VRB05KT P6SM SCT080 BKN150=



000
FTUS45 KPIH 281100
TAFSUN
TAF
KSUN 281120Z 2812/2912 31008KT P6SM SCT250
     FM281800 13006KT P6SM FEW150 SCT250
     FM290300 31010KT P6SM SCT060 BKN150
      AMD LTD TO CLD VIS AND WIND TIL 281300=



000
FTUS45 KPIH 281100
TAFBYI
TAF
KBYI 281120Z 2812/2912 VRB05KT P6SM SCT200
     FM290300 VRB05KT P6SM SCT120 BKN150=



000
FTUS45 KPIH 281100
TAFPIH
TAF
KPIH 281120Z 2812/2912 VRB05KT P6SM SCT200
     FM290600 VRB05KT P6SM BKN120 BKN150=



000
FTUS45 KPIH 280500
TAFBYI
TAF
KBYI 280520Z 2806/2906 VRB05KT P6SM SKC
     FM281900 27008KT P6SM SCT250
     FM290300 VRB05KT P6SM SKC=



000
FTUS45 KPIH 280500
TAFIDA
TAF
KIDA 280520Z 2806/2906 VRB06KT P6SM SCT200
     FM281700 21007KT P6SM SCT250=



000
FTUS45 KPIH 280500
TAFSUN
TAF
KSUN 280520Z 2806/2906 32010KT P6SM SCT250
     FM281800 13006KT P6SM FEW100 SCT250
     FM290300 31010KT P6SM SCT250
      AMD LTD TO CLD VIS AND WIND TIL 281300=



000
FTUS45 KPIH 280500
TAFPIH
TAF
KPIH 280520Z 2806/2906 VRB05KT P6SM SCT200
     FM281700 23007KT P6SM SKC=



    US Dept of Commerce
    National Oceanic and Atmospheric Administration
    National Weather Service
    1325 East West Highway
    Silver Spring, MD 20910
    Page Author: NWS Internet Services Team
Disclaimer
Information Quality
Credits
Glossary
Privacy Policy
Freedom of Information Act (FOIA)
About Us
Career Opportunities